Time;durP1;ratioP1;P1;durP2;ratioP2;P2;SDS_P1;SDS_P2;PMS_P1;PMS_P2;Temp;Humidity;BMP_temperature;BMP_pressure;BME280_temperature;BME280_humidity;BME280_pressure;Samples;Min_cycle;Max_cycle;Signal;HPM_P1;HPM_P2
2021/03/13 00:02:05;;;;;;;0.00;0.00;;;14.50;71.80;;;;;;4198593;28;20086;-54
2021/03/13 00:04:26;;;;;;;0.00;0.00;;;14.50;71.90;;;;;;4198569;28;20080;-52
2021/03/13 00:06:46;;;;;;;0.00;0.00;;;14.50;71.90;;;;;;4198314;28;20044;-53
2021/03/13 00:09:08;;;;;;;0.00;0.00;;;14.50;71.90;;;;;;4198547;28;20295;-51
2021/03/13 00:11:28;;;;;;;0.30;0.30;;;14.50;71.90;;;;;;4198476;28;20084;-54
2021/03/13 00:13:49;;;;;;;0.13;0.13;;;14.50;71.90;;;;;;4198016;28;20122;-54
2021/03/13 00:16:11;;;;;;;0.10;0.10;;;14.50;71.80;;;;;;4198494;28;20399;-54
2021/03/13 00:18:33;;;;;;;0.10;0.10;;;14.40;71.80;;;;;;4197855;28;20052;-55
2021/03/13 00:20:54;;;;;;;0.73;0.73;;;14.40;72.00;;;;;;4197917;28;20081;-54
2021/03/13 00:23:15;;;;;;;0.00;0.00;;;14.40;71.80;;;;;;4198110;28;20049;-58
2021/03/13 00:25:37;;;;;;;0.00;0.00;;;14.40;71.80;;;;;;4198301;28;20052;-54
2021/03/13 00:27:59;;;;;;;0.00;0.00;;;14.40;71.80;;;;;;4198263;28;20052;-54
2021/03/13 00:30:22;;;;;;;0.00;0.00;;;14.40;71.80;;;;;;4197698;28;20486;-56
2021/03/13 00:32:43;;;;;;;0.00;0.00;;;14.40;71.80;;;;;;4198373;28;20056;-54
2021/03/13 00:35:05;;;;;;;0.00;0.00;;;14.30;71.80;;;;;;4198002;28;20135;-54
2021/03/13 00:37:26;;;;;;;0.00;0.00;;;14.30;71.90;;;;;;4197864;28;20457;-54
2021/03/13 00:39:47;;;;;;;0.00;0.00;;;14.30;71.80;;;;;;4197686;28;20070;-55
2021/03/13 00:42:09;;;;;;;0.00;0.00;;;14.30;71.80;;;;;;4197947;28;20056;-53
2021/03/13 00:44:29;;;;;;;0.00;0.00;;;14.30;71.80;;;;;;4197685;28;20127;-55
2021/03/13 00:46:50;;;;;;;0.45;0.45;;;14.30;71.80;;;;;;4197830;28;20064;-53
2021/03/13 00:49:11;;;;;;;0.00;0.00;;;14.30;71.90;;;;;;4196816;28;20059;-54
2021/03/13 00:51:32;;;;;;;0.00;0.00;;;14.20;72.00;;;;;;4197524;28;20522;-54
2021/03/13 00:53:54;;;;;;;0.00;0.00;;;14.20;72.00;;;;;;4196591;28;20422;-53
2021/03/13 00:56:15;;;;;;;0.35;0.35;;;14.20;72.00;;;;;;4197748;28;20055;-56
2021/03/13 00:58:37;;;;;;;0.00;0.00;;;14.20;72.10;;;;;;4197254;28;20052;-52
2021/03/13 01:00:59;;;;;;;0.08;0.08;;;14.20;72.00;;;;;;4197523;28;20076;-51
2021/03/13 01:03:26;;;;;;;0.00;0.00;;;14.10;72.00;;;;;;4196455;28;20143;-54
2021/03/13 01:05:47;;;;;;;;;;;14.10;72.00;;;;;;4197095;28;20147;-55
2021/03/13 01:08:08;;;;;;;0.00;0.00;;;14.10;72.00;;;;;;4195822;28;19967;-55
2021/03/13 01:10:43;;;;;;;0.00;0.00;;;14.00;72.00;;;;;;4179917;28;20171;-55
2021/03/13 01:13:08;;;;;;;0.00;0.00;;;14.00;71.90;;;;;;4193990;28;20469;-54
2021/03/13 01:15:31;;;;;;;0.00;0.00;;;14.00;71.90;;;;;;4179878;28;20053;-54
2021/03/13 01:17:52;;;;;;;0.75;0.75;;;14.00;71.90;;;;;;4191220;28;20083;-56
2021/03/13 01:20:16;;;;;;;0.20;0.20;;;14.00;72.00;;;;;;4196392;28;20426;-57
2021/03/13 01:22:39;;;;;;;0.00;0.00;;;14.00;71.90;;;;;;4196212;28;20432;-55
2021/03/13 01:25:05;;;;;;;0.00;0.00;;;13.90;71.80;;;;;;4196070;28;20056;-56
2021/03/13 01:27:25;;;;;;;0.80;0.80;;;13.90;71.90;;;;;;4197464;28;20117;-55
2021/03/13 01:29:46;;;;;;;0.00;0.00;;;13.90;71.90;;;;;;4196911;28;20066;-55
2021/03/13 01:32:08;;;;;;;0.00;0.00;;;13.90;71.80;;;;;;4197243;28;20056;-56
2021/03/13 01:34:33;;;;;;;0.00;0.00;;;13.90;71.80;;;;;;4195928;28;20111;-54
2021/03/13 01:37:13;;;;;;;0.00;0.00;;;13.90;71.90;;;;;;4196937;28;20517;-53
2021/03/13 01:39:37;;;;;;;0.00;0.00;;;13.90;71.80;;;;;;4195975;28;20044;-55
2021/03/13 01:42:00;;;;;;;0.75;0.75;;;13.80;71.80;;;;;;4195961;28;20137;-52
2021/03/13 01:44:22;;;;;;;0.00;0.00;;;13.80;71.70;;;;;;4193350;28;20098;-56
2021/03/13 01:46:43;;;;;;;;;;;13.80;71.70;;;;;;4179946;28;20130;-55
2021/03/13 01:49:07;;;;;;;0.00;0.00;;;13.80;71.90;;;;;;4179380;28;19921;-54
2021/03/13 01:51:29;;;;;;;0.00;0.00;;;13.80;71.80;;;;;;4179435;28;20064;-53
2021/03/13 01:53:56;;;;;;;0.00;0.00;;;13.80;71.90;;;;;;4187788;28;20052;-56
2021/03/13 01:56:19;;;;;;;0.00;0.00;;;13.80;71.90;;;;;;4195274;28;20053;-56
2021/03/13 01:58:44;;;;;;;0.20;0.20;;;13.70;71.80;;;;;;4193121;28;20058;-55
2021/03/13 02:01:18;;;;;;;0.00;0.00;;;13.80;71.80;;;;;;4179159;28;20080;-55
2021/03/13 02:03:39;;;;;;;0.00;0.00;;;13.80;71.90;;;;;;4180264;28;20503;-55
2021/03/13 02:06:01;;;;;;;0.00;0.00;;;13.70;71.80;;;;;;4193174;28;20485;-53
2021/03/13 02:08:28;;;;;;;0.00;0.00;;;13.70;71.90;;;;;;4180090;28;20059;-55
2021/03/13 02:11:02;;;;;;;0.10;0.10;;;13.70;71.90;;;;;;4179009;28;20064;-55
2021/03/13 02:13:30;;;;;;;1.20;0.75;;;13.70;71.90;;;;;;4184443;28;20040;-53
2021/03/13 02:16:02;;;;;;;0.00;0.00;;;13.70;72.00;;;;;;4195259;28;20814;-53
2021/03/13 02:18:28;;;;;;;;;;;13.70;72.10;;;;;;4195961;28;20059;-55
2021/03/13 02:21:09;;;;;;;0.00;0.00;;;13.70;72.10;;;;;;4195359;28;19963;-55
2021/03/13 02:23:49;;;;;;;0.00;0.00;;;13.70;72.00;;;;;;4196042;28;20055;-54
2021/03/13 02:26:26;;;;;;;0.00;0.00;;;13.70;72.10;;;;;;4178686;28;20072;-54
2021/03/13 02:29:36;;;;;;;0.00;0.00;;;13.60;72.00;;;;;;4175375;28;20083;-53
2021/03/13 02:32:03;;;;;;;0.00;0.00;;;13.70;72.10;;;;;;4195167;28;20126;-54
2021/03/13 02:34:29;;;;;;;0.00;0.00;;;13.60;72.00;;;;;;4196027;28;20105;-52
2021/03/13 02:36:52;;;;;;;0.00;0.00;;;13.60;72.00;;;;;;4179557;28;20056;-54
2021/03/13 02:39:17;;;;;;;0.08;0.08;;;13.60;72.10;;;;;;4179710;28;20060;-53
2021/03/13 02:41:50;;;;;;;0.00;0.00;;;13.60;72.00;;;;;;4192568;28;20067;-54
2021/03/13 02:44:15;;;;;;;0.00;0.00;;;13.60;72.10;;;;;;4194724;28;20056;-54
2021/03/13 02:46:49;;;;;;;0.00;0.00;;;13.60;72.00;;;;;;4195144;28;20416;-52
2021/03/13 02:49:15;;;;;;;11.85;1.75;;;13.60;72.10;;;;;;4195060;28;20135;-53
2021/03/13 02:51:42;;;;;;;0.10;0.10;;;13.60;72.10;;;;;;4195073;28;20115;-53
2021/03/13 02:54:04;;;;;;;0.45;0.43;;;13.60;72.10;;;;;;4194315;28;20080;-56
2021/03/13 02:56:26;;;;;;;0.03;0.03;;;13.60;72.10;;;;;;4194823;28;20052;-49
2021/03/13 02:58:52;;;;;;;0.00;0.00;;;13.60;72.10;;;;;;4185184;28;20086;-56
2021/03/13 03:01:16;;;;;;;0.00;0.00;;;13.60;72.10;;;;;;4193989;28;20059;-59
2021/03/13 03:03:41;;;;;;;0.00;0.00;;;13.60;72.10;;;;;;4195630;28;20060;-54
2021/03/13 03:06:14;;;;;;;0.00;0.00;;;13.60;72.20;;;;;;4194779;28;20094;-53
2021/03/13 03:08:42;;;;;;;0.00;0.00;;;13.60;72.20;;;;;;4194685;28;20056;-56
2021/03/13 03:11:06;;;;;;;0.00;0.00;;;13.60;72.20;;;;;;4194652;28;20072;-54
2021/03/13 03:13:28;;;;;;;0.00;0.00;;;13.60;72.20;;;;;;4191836;28;20114;-58
2021/03/13 03:15:51;;;;;;;0.00;0.00;;;13.60;72.30;;;;;;4178278;28;20053;-53
2021/03/13 03:18:17;;;;;;;0.00;0.00;;;13.60;72.20;;;;;;4179117;28;20159;-54
2021/03/13 03:20:42;;;;;;;0.00;0.00;;;13.60;72.20;;;;;;4178160;28;20063;-55
2021/03/13 03:23:06;;;;;;;0.00;0.00;;;13.60;72.30;;;;;;4188910;28;20057;-55
2021/03/13 03:25:27;;;;;;;0.00;0.00;;;13.60;72.30;;;;;;4194752;28;20053;-52
2021/03/13 03:27:53;;;;;;;;;;;13.50;72.30;;;;;;4194764;28;20062;-56
2021/03/13 03:30:24;;;;;;;0.28;0.28;;;13.60;72.50;;;;;;4193921;28;19951;-54
2021/03/13 03:32:45;;;;;;;0.00;0.00;;;13.50;72.50;;;;;;4195475;28;20558;-53
2021/03/13 03:35:07;;;;;;;;;;;13.50;72.50;;;;;;4195029;28;20159;-55
2021/03/13 03:37:29;;;;;;;0.00;0.00;;;13.50;72.60;;;;;;4194620;28;19947;-55
2021/03/13 03:39:50;;;;;;;0.05;0.05;;;13.50;72.60;;;;;;4194243;28;20576;-55
2021/03/13 03:42:15;;;;;;;0.00;0.00;;;13.50;72.50;;;;;;4194468;28;20059;-54
2021/03/13 03:44:42;;;;;;;0.00;0.00;;;13.50;72.50;;;;;;4194470;28;20059;-54
2021/03/13 03:47:09;;;;;;;0.00;0.00;;;13.50;72.60;;;;;;4194474;28;20056;-53
2021/03/13 03:49:34;;;;;;;0.00;0.00;;;13.50;72.60;;;;;;4194419;28;20053;-54
2021/03/13 03:52:10;;;;;;;0.00;0.00;;;13.50;72.70;;;;;;4194000;28;20049;-55
2021/03/13 03:54:35;;;;;;;0.00;0.00;;;13.50;72.80;;;;;;4194441;28;20110;-54
2021/03/13 03:56:59;;;;;;;0.10;0.10;;;13.50;72.80;;;;;;4195348;28;20044;-55
2021/03/13 03:59:22;;;;;;;0.00;0.00;;;13.50;72.80;;;;;;4195110;28;20059;-56
2021/03/13 04:01:47;;;;;;;0.00;0.00;;;13.50;72.80;;;;;;4195236;28;20055;-54
2021/03/13 04:04:09;;;;;;;0.00;0.00;;;13.50;72.80;;;;;;4195250;28;20040;-55
2021/03/13 04:06:32;;;;;;;0.00;0.00;;;13.50;72.80;;;;;;4195371;28;20056;-55
2021/03/13 04:08:58;;;;;;;0.00;0.00;;;13.50;72.80;;;;;;4195415;28;20064;-55
2021/03/13 04:11:23;;;;;;;0.10;0.10;;;13.50;72.80;;;;;;4195324;28;20086;-54
2021/03/13 04:13:44;;;;;;;0.00;0.00;;;13.50;72.90;;;;;;4194720;28;20086;-54
2021/03/13 04:16:06;;;;;;;0.00;0.00;;;13.40;72.80;;;;;;4178707;28;20053;-56
2021/03/13 04:18:27;;;;;;;1.17;1.17;;;13.50;72.90;;;;;;4177501;28;20076;-53
2021/03/13 04:20:50;;;;;;;0.08;0.08;;;13.40;72.80;;;;;;4178609;28;20049;-53
2021/03/13 04:23:12;;;;;;;0.00;0.00;;;13.40;72.80;;;;;;4183838;28;20063;-53
2021/03/13 04:25:35;;;;;;;0.00;0.00;;;13.40;72.80;;;;;;4195143;28;20084;-56
2021/03/13 04:27:57;;;;;;;0.40;0.40;;;13.40;72.90;;;;;;4193851;28;20041;-53
2021/03/13 04:30:19;;;;;;;0.00;0.00;;;13.40;72.80;;;;;;4194637;28;20533;-54
2021/03/13 04:32:41;;;;;;;0.00;0.00;;;13.40;73.00;;;;;;4194633;28;20502;-55
2021/03/13 04:35:02;;;;;;;;;;;13.40;73.00;;;;;;4195614;28;20053;-54
2021/03/13 04:37:24;;;;;;;0.20;0.20;;;13.40;73.00;;;;;;4195076;28;19974;-53
2021/03/13 04:39:46;;;;;;;0.00;0.00;;;13.40;73.10;;;;;;4195134;28;20049;-54
2021/03/13 04:42:08;;;;;;;0.00;0.00;;;13.40;73.00;;;;;;4194952;28;20522;-53
2021/03/13 04:44:31;;;;;;;0.00;0.00;;;13.40;73.00;;;;;;4181306;28;20471;-55
2021/03/13 04:46:53;;;;;;;0.00;0.00;;;13.40;73.00;;;;;;4181433;28;20585;-51
2021/03/13 04:49:14;;;;;;;0.00;0.00;;;13.40;73.00;;;;;;4180240;28;20136;-55
2021/03/13 04:51:35;;;;;;;0.00;0.00;;;13.40;73.10;;;;;;4185900;28;20118;-55
2021/03/13 04:53:56;;;;;;;0.00;0.00;;;13.30;73.10;;;;;;4197657;28;20515;-53
2021/03/13 04:56:17;;;;;;;0.00;0.00;;;13.30;73.10;;;;;;4197928;28;20086;-54
2021/03/13 04:58:38;;;;;;;0.10;0.10;;;13.30;73.10;;;;;;4197460;28;20053;-53
2021/03/13 05:00:59;;;;;;;0.00;0.00;;;13.30;73.10;;;;;;4197707;28;20048;-54
2021/03/13 05:03:31;;;;;;;0.00;0.00;;;13.30;73.20;;;;;;4197495;28;20122;-54
2021/03/13 05:05:52;;;;;;;;;;;13.30;73.20;;;;;;4198166;28;20736;-54
2021/03/13 05:08:13;;;;;;;0.00;0.00;;;13.30;73.30;;;;;;4197808;28;19951;-55
2021/03/13 05:10:35;;;;;;;;;;;13.30;73.30;;;;;;4198096;28;20070;-56
2021/03/13 05:12:56;;;;;;;0.00;0.00;;;13.20;73.40;;;;;;4186047;28;20329;-54
2021/03/13 05:15:17;;;;;;;0.00;0.00;;;13.20;73.40;;;;;;4197561;28;20059;-54
2021/03/13 05:17:39;;;;;;;0.15;0.15;;;13.20;73.40;;;;;;4197377;28;20064;-53
2021/03/13 05:20:00;;;;;;;0.00;0.00;;;13.20;73.50;;;;;;4197491;28;20076;-52
2021/03/13 05:22:20;;;;;;;0.00;0.00;;;13.20;73.60;;;;;;4197391;28;20151;-53
2021/03/13 05:24:45;;;;;;;0.00;0.00;;;13.20;73.60;;;;;;4180884;28;20327;-56
2021/03/13 05:27:06;;;;;;;0.00;0.00;;;13.20;73.70;;;;;;4180918;28;20053;-53
2021/03/13 05:29:27;;;;;;;0.00;0.00;;;13.20;73.70;;;;;;4180607;28;20407;-54
2021/03/13 05:31:48;;;;;;;0.00;0.00;;;13.20;73.80;;;;;;4192109;28;20063;-54
2021/03/13 05:34:11;;;;;;;0.00;0.00;;;13.20;73.80;;;;;;4197086;28;20048;-54
2021/03/13 05:36:32;;;;;;;1.17;1.08;;;13.10;73.70;;;;;;4186688;28;20087;-52
2021/03/13 05:38:53;;;;;;;0.15;0.15;;;13.10;73.80;;;;;;4180545;28;20049;-52
2021/03/13 05:41:16;;;;;;;0.00;0.00;;;13.10;73.80;;;;;;4180827;28;20507;-53
2021/03/13 05:43:39;;;;;;;0.00;0.00;;;13.10;73.80;;;;;;4191820;28;20137;-54
2021/03/13 05:46:02;;;;;;;0.00;0.00;;;13.10;73.90;;;;;;4197054;28;20632;-55
2021/03/13 05:48:25;;;;;;;0.00;0.00;;;13.10;73.90;;;;;;4197020;28;20562;-52
2021/03/13 05:50:48;;;;;;;0.00;0.00;;;13.10;74.00;;;;;;4196727;28;20056;-56
2021/03/13 05:53:11;;;;;;;0.25;0.25;;;13.10;74.00;;;;;;4196451;28;20045;-54
2021/03/13 05:55:32;;;;;;;0.00;0.00;;;13.10;74.00;;;;;;4196938;28;20052;-54
2021/03/13 05:57:53;;;;;;;0.00;0.00;;;13.10;74.10;;;;;;4196668;28;20052;-53
2021/03/13 06:00:16;;;;;;;0.00;0.00;;;13.10;74.10;;;;;;4196808;28;20062;-56
2021/03/13 06:02:37;;;;;;;0.00;0.00;;;13.10;74.10;;;;;;4196739;28;20491;-52
2021/03/13 06:04:59;;;;;;;0.05;0.05;;;13.10;74.20;;;;;;4196466;28;20635;-55
2021/03/13 06:07:23;;;;;;;0.03;0.03;;;13.10;74.20;;;;;;4196778;28;20058;-53
2021/03/13 06:09:44;;;;;;;0.00;0.00;;;13.00;74.20;;;;;;4196598;28;20149;-54
2021/03/13 06:12:07;;;;;;;0.00;0.00;;;13.00;74.20;;;;;;4180152;28;20116;-54
2021/03/13 06:14:28;;;;;;;1.10;1.10;;;13.00;74.20;;;;;;4180117;28;20111;-55
2021/03/13 06:16:48;;;;;;;0.00;0.00;;;13.00;74.20;;;;;;4180061;28;20045;-54
2021/03/13 06:19:10;;;;;;;0.00;0.00;;;13.00;74.30;;;;;;4179995;28;20575;-54
2021/03/13 06:21:33;;;;;;;0.00;0.00;;;13.00;74.30;;;;;;4180049;28;20056;-46
2021/03/13 06:23:58;;;;;;;0.00;0.00;;;13.00;74.50;;;;;;4193730;28;20138;-52
2021/03/13 06:26:19;;;;;;;0.00;0.00;;;13.00;76.40;;;;;;4196338;28;20054;-56
2021/03/13 06:28:40;;;;;;;0.00;0.00;;;13.10;76.10;;;;;;4196185;28;20510;-55
2021/03/13 06:31:07;;;;;;;0.00;0.00;;;13.10;75.70;;;;;;4195454;28;20130;-55
2021/03/13 06:33:30;;;;;;;0.50;0.50;;;13.10;75.50;;;;;;4188632;28;20056;-49
2021/03/13 06:35:53;;;;;;;0.00;0.00;;;13.10;75.40;;;;;;4196376;28;20099;-54
2021/03/13 06:38:15;;;;;;;0.00;0.00;;;13.10;75.30;;;;;;4196019;28;20051;-53
2021/03/13 06:40:38;;;;;;;0.00;0.00;;;13.10;75.30;;;;;;4195772;28;20071;-56
2021/03/13 06:43:01;;;;;;;0.00;0.00;;;13.00;75.30;;;;;;4195329;28;20499;-53
2021/03/13 06:45:22;;;;;;;0.00;0.00;;;13.00;75.30;;;;;;4194747;28;20048;-52
2021/03/13 06:47:43;;;;;;;0.00;0.00;;;13.00;75.30;;;;;;4193818;28;20131;-52
2021/03/13 06:50:09;;;;;;;0.00;0.00;;;13.20;75.40;;;;;;4195745;28;20461;-53
2021/03/13 06:52:30;;;;;;;0.00;0.00;;;13.80;73.50;;;;;;4195859;28;20106;-50
2021/03/13 06:54:51;;;;;;;0.00;0.00;;;14.70;69.50;;;;;;4196172;28;20110;-53
2021/03/13 06:57:20;;;;;;;0.00;0.00;;;15.50;65.80;;;;;;4196106;28;20491;-53
2021/03/13 06:59:46;;;;;;;0.00;0.00;;;16.40;62.40;;;;;;4195827;28;20048;-54
2021/03/13 07:02:09;;;;;;;0.00;0.00;;;17.20;59.50;;;;;;4195784;28;20495;-54
2021/03/13 07:04:36;;;;;;;0.00;0.00;;;18.10;57.30;;;;;;4195791;28;20086;-52
2021/03/13 07:06:57;;;;;;;0.00;0.00;;;18.80;55.20;;;;;;4195757;28;20621;-52
2021/03/13 07:09:48;;;;;;;0.00;0.00;;;19.40;53.70;;;;;;4195568;28;20055;-55
2021/03/13 07:12:24;;;;;;;5.45;0.60;;;19.70;52.80;;;;;;4195790;28;20048;-55
2021/03/13 07:14:45;;;;;;;0.00;0.00;;;19.90;52.50;;;;;;4195661;28;20132;-52
2021/03/13 07:17:06;;;;;;;0.00;0.00;;;19.80;52.40;;;;;;4195768;28;20477;-55
2021/03/13 07:19:28;;;;;;;0.00;0.00;;;19.70;52.90;;;;;;4195822;28;20056;-55
2021/03/13 07:21:49;;;;;;;0.00;0.00;;;19.40;53.40;;;;;;4195589;28;20503;-49
2021/03/13 07:24:12;;;;;;;1.00;0.80;;;19.20;54.00;;;;;;4195624;28;20071;-54
2021/03/13 07:26:36;;;;;;;0.00;0.00;;;18.90;54.70;;;;;;4195466;28;20049;-55
2021/03/13 07:29:00;;;;;;;0.00;0.00;;;18.60;55.50;;;;;;4195335;28;20052;-53
2021/03/13 07:31:22;;;;;;;0.00;0.00;;;18.30;56.20;;;;;;4179206;28;20872;-54
2021/03/13 07:33:47;;;;;;;0.00;0.00;;;18.00;56.80;;;;;;4178922;28;20053;-53
2021/03/13 07:36:11;;;;;;;0.00;0.00;;;18.00;57.20;;;;;;4178914;28;20508;-53
2021/03/13 07:38:33;;;;;;;0.00;0.00;;;18.10;56.90;;;;;;4179138;28;20110;-53
2021/03/13 07:40:55;;;;;;;0.52;0.40;;;18.00;56.90;;;;;;4185558;28;20052;-55
2021/03/13 07:43:17;;;;;;;0.00;0.00;;;17.90;57.30;;;;;;4195324;28;20055;-56
2021/03/13 07:45:39;;;;;;;0.40;0.40;;;17.80;58.20;;;;;;4195562;28;20071;-56
2021/03/13 07:48:00;;;;;;;0.00;0.00;;;17.70;58.40;;;;;;4194732;28;20456;-52
2021/03/13 07:50:22;;;;;;;0.00;0.00;;;17.70;58.40;;;;;;4194557;28;20045;-54
2021/03/13 07:52:44;;;;;;;0.00;0.00;;;17.60;58.50;;;;;;4194987;28;20061;-51
2021/03/13 07:55:09;;;;;;;14.40;1.85;;;17.50;60.30;;;;;;4193528;28;20048;-56
2021/03/13 07:57:31;;;;;;;0.00;0.00;;;17.60;60.80;;;;;;4195530;28;20074;-50
2021/03/13 07:59:52;;;;;;;0.10;0.10;;;17.70;60.00;;;;;;4195177;28;20053;-53
2021/03/13 08:02:37;;;;;;;0.10;0.10;;;17.70;61.10;;;;;;4194889;28;20055;-53
2021/03/13 08:04:59;;;;;;;0.00;0.00;;;18.00;60.60;;;;;;4182560;28;20049;-55
2021/03/13 08:07:20;;;;;;;0.00;0.00;;;18.10;60.10;;;;;;4194975;28;20045;-53
2021/03/13 08:09:42;;;;;;;0.40;0.40;;;18.20;60.20;;;;;;4195301;28;20060;-54
2021/03/13 08:12:04;;;;;;;0.00;0.00;;;18.30;60.10;;;;;;4195243;28;20491;-56
2021/03/13 08:14:34;;;;;;;5.38;1.25;;;18.40;59.60;;;;;;4178729;28;20458;-55
2021/03/13 08:17:05;;;;;;;0.00;0.00;;;18.50;59.30;;;;;;4179700;28;20064;-54
2021/03/13 08:19:36;;;;;;;0.00;0.00;;;18.50;59.40;;;;;;4181980;28;20102;-54
2021/03/13 08:22:12;;;;;;;0.00;0.00;;;18.30;59.70;;;;;;4191933;28;20098;-54
2021/03/13 08:24:44;;;;;;;0.00;0.00;;;18.00;60.30;;;;;;4197731;28;20060;-52
2021/03/13 08:27:07;;;;;;;0.28;0.20;;;17.90;60.90;;;;;;4198090;28;20494;-52
2021/03/13 08:29:56;;;;;;;0.00;0.00;;;17.70;61.40;;;;;;4198055;28;20064;-49
2021/03/13 08:32:48;;;;;;;0.00;0.00;;;17.60;62.10;;;;;;4197391;28;20052;-52
2021/03/13 08:35:11;;;;;;;0.00;0.00;;;17.70;62.10;;;;;;4198225;28;20060;-54
2021/03/13 08:37:47;;;;;;;7.75;1.80;;;17.90;61.60;;;;;;4198129;28;20068;-53
2021/03/13 08:40:23;;;;;;;0.00;0.00;;;18.00;61.10;;;;;;4197620;28;20052;-49
2021/03/13 08:42:44;;;;;;;1.58;1.48;;;18.10;60.60;;;;;;4197559;28;20052;-54
2021/03/13 08:45:12;;;;;;;;;;;18.20;60.30;;;;;;4198498;28;20491;-53
2021/03/13 08:47:41;;;;;;;0.00;0.00;;;18.40;59.90;;;;;;4198164;28;19928;-53
2021/03/13 08:50:04;;;;;;;0.00;0.00;;;18.40;60.50;;;;;;4198134;28;20159;-53
2021/03/13 08:52:29;;;;;;;0.10;0.10;;;18.50;59.40;;;;;;4197031;28;20060;-51
2021/03/13 08:54:53;;;;;;;0.00;0.00;;;18.70;59.10;;;;;;4197889;28;20049;-52
2021/03/13 08:57:15;;;;;;;1.08;0.98;;;18.80;58.80;;;;;;4197802;28;20487;-52
2021/03/13 08:59:37;;;;;;;0.00;0.00;;;18.80;58.90;;;;;;4197803;28;20171;-54
2021/03/13 09:02:03;;;;;;;0.20;0.20;;;18.70;58.90;;;;;;4197683;28;20475;-50
2021/03/13 09:04:25;;;;;;;0.30;0.30;;;18.70;58.90;;;;;;4197642;28;20498;-52
2021/03/13 09:06:45;;;;;;;0.00;0.00;;;18.80;58.70;;;;;;4197914;28;20056;-52
2021/03/13 09:09:16;;;;;;;0.00;0.00;;;18.90;58.40;;;;;;4197791;28;20083;-54
2021/03/13 09:11:37;;;;;;;0.00;0.00;;;18.90;58.50;;;;;;4197658;28;20052;-52
2021/03/13 09:13:59;;;;;;;0.00;0.00;;;18.80;58.60;;;;;;4197769;28;20057;-53
2021/03/13 09:16:20;;;;;;;0.00;0.00;;;18.70;58.80;;;;;;4197690;28;20126;-51
2021/03/13 09:18:53;;;;;;;0.47;0.47;;;18.60;59.00;;;;;;4197513;28;20052;-54
2021/03/13 09:21:44;;;;;;;0.00;0.00;;;18.40;59.40;;;;;;4197496;28;20071;-51
2021/03/13 09:24:07;;;;;;;3.20;0.65;;;18.20;60.00;;;;;;4197506;28;20057;-54
2021/03/13 09:26:29;;;;;;;0.68;0.68;;;18.20;60.30;;;;;;4197476;28;20139;-50
2021/03/13 09:28:50;;;;;;;0.00;0.00;;;18.20;61.20;;;;;;4196774;28;20060;-53
2021/03/13 09:31:12;;;;;;;0.00;0.00;;;18.30;60.30;;;;;;4197549;28;20048;-53
2021/03/13 09:33:33;;;;;;;0.00;0.00;;;18.40;60.20;;;;;;4197430;28;20052;-54
2021/03/13 09:35:54;;;;;;;0.00;0.00;;;18.40;59.90;;;;;;4197538;28;20063;-56
2021/03/13 09:38:16;;;;;;;0.35;0.35;;;18.50;59.60;;;;;;4197040;28;20059;-53
2021/03/13 09:40:37;;;;;;;0.00;0.00;;;18.50;60.30;;;;;;4197331;28;20541;-52
2021/03/13 09:42:58;;;;;;;0.00;0.00;;;18.50;59.70;;;;;;4197115;28;20098;-54
2021/03/13 09:45:20;;;;;;;0.30;0.30;;;18.40;60.00;;;;;;4197333;28;20135;-51
2021/03/13 09:47:44;;;;;;;2.75;0.85;;;18.30;60.20;;;;;;4197079;28;20052;-51
2021/03/13 09:50:08;;;;;;;0.00;0.00;;;18.30;60.30;;;;;;4197190;28;20053;-53
2021/03/13 09:52:30;;;;;;;0.00;0.00;;;18.50;59.80;;;;;;4197041;28;20056;-54
2021/03/13 09:54:59;;;;;;;0.00;0.00;;;18.70;59.40;;;;;;4197175;28;20053;-55
2021/03/13 09:57:20;;;;;;;0.00;0.00;;;18.80;59.10;;;;;;4196978;28;20049;-53
2021/03/13 09:59:43;;;;;;;0.05;0.05;;;18.70;58.80;;;;;;4197124;28;20129;-54
2021/03/13 10:02:04;;;;;;;0.00;0.00;;;18.60;58.90;;;;;;4196881;28;20059;-55
2021/03/13 10:04:26;;;;;;;0.00;0.00;;;18.60;59.20;;;;;;4196915;28;20384;-54
2021/03/13 10:06:47;;;;;;;0.03;0.03;;;18.60;59.30;;;;;;4196745;28;20127;-57
2021/03/13 10:09:11;;;;;;;0.00;0.00;;;18.50;59.10;;;;;;4195950;28;20059;-55
2021/03/13 10:11:39;;;;;;;0.35;0.35;;;18.80;58.40;;;;;;4196758;28;20506;-56
2021/03/13 10:14:00;;;;;;;0.00;0.00;;;19.50;56.70;;;;;;4196498;28;20056;-53
2021/03/13 10:16:30;;;;;;;0.10;0.10;;;20.20;54.70;;;;;;4196444;28;20135;-54
2021/03/13 10:18:51;;;;;;;0.00;0.00;;;20.80;53.10;;;;;;4196380;28;20131;-55
2021/03/13 10:21:12;;;;;;;0.00;0.00;;;21.20;52.00;;;;;;4196528;28;20056;-56
2021/03/13 10:23:35;;;;;;;0.70;0.70;;;21.60;51.20;;;;;;4196514;28;20056;-55
2021/03/13 10:25:58;;;;;;;0.00;0.00;;;21.90;50.60;;;;;;4196687;28;20048;-52
2021/03/13 10:28:20;;;;;;;0.00;0.00;;;22.10;50.30;;;;;;4196540;28;20049;-56
2021/03/13 10:30:42;;;;;;;0.17;0.17;;;22.10;50.40;;;;;;4196304;28;20139;-56
2021/03/13 10:33:05;;;;;;;0.00;0.00;;;21.90;50.80;;;;;;4196574;28;20472;-56
2021/03/13 10:35:28;;;;;;;0.55;0.55;;;21.70;51.40;;;;;;4196306;28;20059;-56
2021/03/13 10:37:51;;;;;;;0.68;0.50;;;21.30;52.30;;;;;;4192766;28;20080;-56
2021/03/13 10:40:28;;;;;;;0.00;0.00;;;21.00;53.10;;;;;;4195409;28;20055;-55
2021/03/13 10:42:49;;;;;;;0.20;0.20;;;20.60;54.00;;;;;;4195928;28;20502;-55
2021/03/13 10:45:18;;;;;;;0.00;0.00;;;20.30;54.80;;;;;;4196328;28;20079;-55
2021/03/13 10:47:39;;;;;;;0.05;0.05;;;20.10;55.40;;;;;;4196115;28;20424;-52
2021/03/13 10:50:01;;;;;;;0.00;0.00;;;20.10;55.30;;;;;;4196222;28;20166;-51
2021/03/13 10:52:27;;;;;;;0.00;0.00;;;20.20;55.10;;;;;;4196229;28;20621;-56
2021/03/13 10:54:48;;;;;;;0.00;0.00;;;20.20;54.90;;;;;;4195960;28;20048;-54
2021/03/13 10:57:29;;;;;;;14.52;4.10;;;20.30;54.80;;;;;;4195997;28;20079;-56
2021/03/13 10:59:50;;;;;;;0.28;0.28;;;20.30;54.50;;;;;;4195981;28;20461;-56
2021/03/13 11:02:11;;;;;;;0.00;0.00;;;20.30;54.70;;;;;;4196010;28;20417;-55
2021/03/13 11:04:32;;;;;;;0.00;0.00;;;20.30;54.70;;;;;;4196243;28;20518;-57
2021/03/13 11:06:55;;;;;;;0.00;0.00;;;20.20;54.70;;;;;;4195842;28;20106;-54
2021/03/13 11:09:16;;;;;;;0.00;0.00;;;20.00;55.00;;;;;;4179553;28;20355;-56
2021/03/13 11:11:37;;;;;;;0.00;0.00;;;19.80;55.50;;;;;;4184721;28;20055;-55
2021/03/13 11:13:59;;;;;;;0.20;0.20;;;19.70;55.80;;;;;;4194709;28;20072;-54
2021/03/13 11:16:22;;;;;;;0.00;0.00;;;19.70;55.70;;;;;;4194727;28;20055;-56
2021/03/13 11:18:43;;;;;;;0.35;0.35;;;19.80;55.60;;;;;;4179169;28;20404;-53
2021/03/13 11:21:05;;;;;;;0.75;0.65;;;19.80;55.40;;;;;;4179220;28;20064;-51
2021/03/13 11:23:27;;;;;;;0.10;0.10;;;19.90;55.10;;;;;;4179065;28;20523;-58
2021/03/13 11:25:49;;;;;;;0.00;0.00;;;20.00;54.90;;;;;;4179149;28;20155;-56
2021/03/13 11:28:10;;;;;;;0.00;0.00;;;20.10;54.80;;;;;;4191645;28;20055;-52
2021/03/13 11:30:32;;;;;;;0.00;0.00;;;20.20;54.60;;;;;;4195040;28;20067;-55
2021/03/13 11:32:53;;;;;;;0.00;0.00;;;20.20;54.40;;;;;;4194733;28;20064;-56
2021/03/13 11:35:14;;;;;;;0.10;0.10;;;20.20;54.30;;;;;;4194553;28;20052;-54
2021/03/13 11:37:35;;;;;;;0.00;0.00;;;20.20;54.30;;;;;;4194233;28;20071;-55
2021/03/13 11:39:57;;;;;;;0.00;0.00;;;20.10;54.50;;;;;;4193707;28;20515;-55
2021/03/13 11:42:18;;;;;;;0.00;0.00;;;20.00;54.60;;;;;;4194820;28;20052;-56
2021/03/13 11:44:39;;;;;;;0.57;0.57;;;20.00;54.80;;;;;;4194508;28;20495;-55
2021/03/13 11:47:00;;;;;;;0.00;0.00;;;19.90;54.90;;;;;;4193586;28;20131;-55
2021/03/13 11:49:21;;;;;;;0.00;0.00;;;19.90;54.90;;;;;;4194591;28;20410;-54
2021/03/13 11:51:42;;;;;;;0.00;0.00;;;19.80;55.10;;;;;;4194629;28;20123;-54
2021/03/13 11:54:03;;;;;;;0.00;0.00;;;19.60;55.60;;;;;;4195442;28;20102;-54
2021/03/13 11:56:24;;;;;;;0.00;0.00;;;19.50;55.90;;;;;;4196627;28;20052;-56
2021/03/13 11:58:46;;;;;;;0.00;0.00;;;19.50;55.80;;;;;;4197469;28;20481;-55
2021/03/13 12:01:08;;;;;;;0.00;0.00;;;19.50;55.70;;;;;;4194851;28;20052;-57
2021/03/13 12:03:30;;;;;;;0.00;0.00;;;19.50;55.70;;;;;;4194127;28;20529;-55
2021/03/13 12:05:51;;;;;;;0.00;0.00;;;19.40;55.90;;;;;;4180337;28;20053;-55
2021/03/13 12:08:12;;;;;;;0.28;0.13;;;19.30;56.20;;;;;;4180934;28;20420;-51
2021/03/13 12:10:33;;;;;;;;;;;19.20;56.40;;;;;;4181164;28;20106;-54
2021/03/13 12:12:55;;;;;;;0.08;0.08;;;19.10;56.50;;;;;;4180920;28;19936;-56
2021/03/13 12:15:16;;;;;;;0.20;0.20;;;18.90;56.80;;;;;;4190035;28;20663;-54
2021/03/13 12:17:38;;;;;;;0.03;0.03;;;18.80;57.20;;;;;;4197196;28;20063;-52
2021/03/13 12:19:59;;;;;;;0.00;0.00;;;18.60;57.70;;;;;;4197200;28;20822;-55
2021/03/13 12:22:21;;;;;;;;;;;18.60;57.80;;;;;;4197207;28;20050;-58
2021/03/13 12:24:42;;;;;;;0.00;0.00;;;18.70;57.60;;;;;;4196951;28;20394;-55
2021/03/13 12:27:06;;;;;;;0.10;0.10;;;18.80;57.40;;;;;;4197108;28;20132;-53
2021/03/13 12:29:29;;;;;;;0.00;0.00;;;18.80;57.00;;;;;;4170021;28;764137;-56
2021/03/13 12:31:50;;;;;;;0.38;0.38;;;19.00;56.70;;;;;;4198024;28;20050;-57
2021/03/13 12:34:11;;;;;;;0.00;0.00;;;19.20;56.20;;;;;;4197542;28;20483;-53